createdAt,value
2022-12-06T00:00:35.086Z,1.89
2022-12-06T00:03:22.424Z,1.85
2022-12-06T00:06:13.824Z,1.83
2022-12-06T00:09:01.250Z,1.83
2022-12-06T00:11:48.758Z,1.83
2022-12-06T00:14:35.999Z,1.84
2022-12-06T00:17:24.734Z,1.85
2022-12-06T00:20:12.022Z,1.85
2022-12-06T00:22:59.533Z,1.87
2022-12-06T00:25:46.658Z,1.83
2022-12-06T00:28:34.294Z,1.80
2022-12-06T00:31:22.672Z,1.74
2022-12-06T00:34:09.905Z,1.81
2022-12-06T00:36:57.139Z,1.80
2022-12-06T00:39:44.612Z,1.80
2022-12-06T00:42:32.064Z,1.83
2022-12-06T00:45:19.223Z,1.94
2022-12-06T00:48:06.281Z,1.92
2022-12-06T00:50:53.386Z,1.87
2022-12-06T00:53:40.902Z,1.92
2022-12-06T00:56:28.043Z,1.99
2022-12-06T00:59:15.223Z,1.97
2022-12-06T01:02:02.462Z,1.97
2022-12-06T01:04:49.531Z,1.99
2022-12-06T01:07:36.694Z,2.00
2022-12-06T01:10:23.876Z,2.06
2022-12-06T01:13:11.144Z,2.07
2022-12-06T01:16:04.142Z,2.01
2022-12-06T01:18:52.218Z,2.03
2022-12-06T01:21:39.468Z,1.99
2022-12-06T01:24:26.537Z,2.08
2022-12-06T01:27:13.943Z,2.10
2022-12-06T01:30:01.394Z,2.07
2022-12-06T01:32:48.766Z,2.10
2022-12-06T01:35:39.211Z,2.04
2022-12-06T01:38:26.499Z,2.06
2022-12-06T01:41:13.651Z,1.95
2022-12-06T01:44:00.818Z,2.01
2022-12-06T01:46:48.007Z,2.09
2022-12-06T01:49:35.463Z,2.12
2022-12-06T01:52:25.794Z,2.11
2022-12-06T01:55:13.616Z,2.10
2022-12-06T01:58:04.901Z,2.14
2022-12-06T02:00:52.076Z,2.12
2022-12-06T02:03:39.747Z,2.05
2022-12-06T02:06:28.624Z,1.97
2022-12-06T02:09:17.158Z,1.94
2022-12-06T02:12:04.781Z,1.90
2022-12-06T02:14:53.158Z,1.94
2022-12-06T02:17:46.143Z,1.95
2022-12-06T02:20:34.742Z,1.93
2022-12-06T02:23:35.900Z,1.96
2022-12-06T02:26:38.734Z,1.93
2022-12-06T02:29:40.333Z,2.02
2022-12-06T02:32:36.510Z,2.00
2022-12-06T02:35:41.232Z,2.06
2022-12-06T02:38:37.324Z,2.08
2022-12-06T02:41:27.323Z,2.02
2022-12-06T02:44:21.127Z,2.14
2022-12-06T02:47:09.354Z,2.07
2022-12-06T02:49:57.268Z,2.13
2022-12-06T02:52:46.471Z,2.11
2022-12-06T02:55:34.208Z,2.14
2022-12-06T02:58:21.409Z,2.13
2022-12-06T03:01:28.634Z,2.13
2022-12-06T03:04:31.486Z,2.17
2022-12-06T03:07:28.567Z,2.21
2022-12-06T03:10:27.831Z,2.17
2022-12-06T03:13:28.726Z,2.18
2022-12-06T03:16:20.369Z,2.22
2022-12-06T03:19:07.492Z,2.23
2022-12-06T03:21:58.909Z,2.24
2022-12-06T03:24:46.991Z,2.25
2022-12-06T03:27:34.660Z,2.21
2022-12-06T03:30:21.826Z,2.24
2022-12-06T03:33:09.906Z,2.21
2022-12-06T03:35:57.591Z,2.23
2022-12-06T03:38:47.408Z,2.19
2022-12-06T03:41:38.175Z,2.17
2022-12-06T03:44:26.319Z,2.16
2022-12-06T03:47:42.957Z,2.16
2022-12-06T03:50:32.604Z,2.18
2022-12-06T03:53:20.290Z,2.17
2022-12-06T03:56:07.526Z,2.19
2022-12-06T03:58:55.040Z,2.17
2022-12-06T04:01:42.144Z,2.13
2022-12-06T04:04:29.360Z,2.16
2022-12-06T04:07:21.594Z,2.15
2022-12-06T04:10:08.786Z,2.22
2022-12-06T04:13:01.799Z,2.21
2022-12-06T04:15:49.306Z,2.20
2022-12-06T04:18:36.428Z,2.24
2022-12-06T04:21:32.652Z,2.27
2022-12-06T04:24:19.897Z,2.26
2022-12-06T04:27:26.048Z,2.32
2022-12-06T04:30:31.953Z,2.37
2022-12-06T04:33:37.922Z,2.36
2022-12-06T04:36:43.709Z,2.34
2022-12-06T04:39:31.210Z,2.37
2022-12-06T04:42:37.298Z,2.37
2022-12-06T04:45:24.510Z,2.33
2022-12-06T04:48:11.702Z,2.36
2022-12-06T04:50:58.960Z,2.39
2022-12-06T04:53:46.288Z,2.39
2022-12-06T04:56:33.702Z,2.40
2022-12-06T04:59:21.484Z,2.36
2022-12-06T05:02:11.469Z,2.37
2022-12-06T05:04:58.708Z,2.38
2022-12-06T05:07:46.020Z,2.33
2022-12-06T05:10:33.638Z,2.28
2022-12-06T05:13:20.776Z,2.21
2022-12-06T05:16:08.462Z,2.25
2022-12-06T05:18:55.757Z,2.26
2022-12-06T05:21:42.945Z,2.27
2022-12-06T05:24:30.340Z,2.24
2022-12-06T05:27:17.480Z,2.25
2022-12-06T05:30:05.250Z,2.28
2022-12-06T05:32:56.948Z,2.31
2022-12-06T05:35:44.287Z,2.33
2022-12-06T05:38:32.640Z,2.36
2022-12-06T05:41:21.001Z,2.34
2022-12-06T05:44:10.693Z,2.38
2022-12-06T05:46:57.713Z,2.36
2022-12-06T05:49:44.994Z,2.39
2022-12-06T05:52:32.281Z,2.44
2022-12-06T05:55:19.631Z,2.47
2022-12-06T05:58:06.767Z,2.51
2022-12-06T06:00:53.817Z,2.54
2022-12-06T06:03:46.964Z,2.56
2022-12-06T06:06:34.945Z,2.61
2022-12-06T06:09:22.188Z,2.65
2022-12-06T06:12:12.665Z,2.68
2022-12-06T06:15:00.122Z,2.69
2022-12-06T06:17:47.532Z,2.74
2022-12-06T06:20:34.841Z,2.78
2022-12-06T06:23:22.126Z,2.85
2022-12-06T06:26:10.113Z,2.90
2022-12-06T06:28:57.518Z,2.97
2022-12-06T06:31:45.109Z,3.06
2022-12-06T06:34:32.237Z,3.07
2022-12-06T06:37:19.454Z,3.08
2022-12-06T06:40:06.990Z,3.17
2022-12-06T06:42:55.418Z,3.23
2022-12-06T06:45:42.890Z,3.35
2022-12-06T06:48:31.636Z,3.44
2022-12-06T06:51:19.228Z,3.50
2022-12-06T06:54:06.641Z,3.55
2022-12-06T06:56:54.515Z,3.63
2022-12-06T06:59:42.979Z,3.59
2022-12-06T07:02:30.274Z,3.61
2022-12-06T07:05:17.645Z,3.63
2022-12-06T07:08:05.038Z,3.63
2022-12-06T07:10:52.418Z,3.63
2022-12-06T07:13:40.178Z,3.63
2022-12-06T07:16:27.378Z,3.68
2022-12-06T07:19:14.694Z,3.66
2022-12-06T07:22:01.770Z,3.59
2022-12-06T07:24:52.425Z,3.62
2022-12-06T07:27:39.770Z,3.60
2022-12-06T07:30:27.878Z,3.61
2022-12-06T07:33:14.951Z,3.60
2022-12-06T07:36:17.407Z,3.59
2022-12-06T07:39:06.802Z,3.63
2022-12-06T07:42:14.773Z,3.69
2022-12-06T07:45:02.804Z,3.75
2022-12-06T07:47:50.290Z,3.80
2022-12-06T07:50:37.413Z,3.80
2022-12-06T07:53:24.512Z,3.86
2022-12-06T07:56:11.542Z,3.88
2022-12-06T07:58:58.659Z,3.93
2022-12-06T08:01:45.896Z,3.98
2022-12-06T08:04:33.061Z,4.04
2022-12-06T08:07:20.870Z,4.08
2022-12-06T08:10:08.145Z,4.04
2022-12-06T08:12:55.256Z,4.00
2022-12-06T08:15:42.414Z,4.01
2022-12-06T08:18:29.973Z,4.06
2022-12-06T08:21:17.630Z,4.03
2022-12-06T08:24:04.867Z,4.04
2022-12-06T08:26:52.566Z,4.08
2022-12-06T08:29:39.720Z,4.12
2022-12-06T08:32:26.786Z,4.08
2022-12-06T08:35:14.146Z,4.20
2022-12-06T08:38:01.202Z,4.27
2022-12-06T08:40:48.340Z,4.28
2022-12-06T08:43:35.508Z,4.31
2022-12-06T08:46:23.152Z,4.35
2022-12-06T08:49:11.582Z,4.34
2022-12-06T08:51:59.011Z,4.36
2022-12-06T08:54:47.151Z,4.36
2022-12-06T08:57:34.179Z,4.31
2022-12-06T09:00:21.701Z,4.31
2022-12-06T09:03:08.890Z,4.38
2022-12-06T09:05:56.320Z,4.38
2022-12-06T09:08:43.465Z,4.38
2022-12-06T09:11:30.581Z,4.47
2022-12-06T09:14:22.038Z,4.48
2022-12-06T09:17:09.564Z,4.47
2022-12-06T09:20:02.128Z,4.54
2022-12-06T09:22:52.445Z,4.53
2022-12-06T09:25:41.218Z,4.54
2022-12-06T09:28:29.426Z,4.54
2022-12-06T09:31:17.123Z,4.52
2022-12-06T09:34:04.377Z,4.51
2022-12-06T09:36:54.802Z,4.51
2022-12-06T09:39:44.138Z,4.54
2022-12-06T09:42:44.091Z,4.54
2022-12-06T09:45:40.831Z,4.51
2022-12-06T09:48:27.933Z,4.55
2022-12-06T09:51:18.262Z,4.45
2022-12-06T09:54:10.027Z,4.49
2022-12-06T09:57:18.406Z,4.50
2022-12-06T10:00:11.289Z,4.48
2022-12-06T10:03:02.308Z,4.42
2022-12-06T10:05:55.656Z,4.51
2022-12-06T10:09:01.204Z,4.52
2022-12-06T10:12:00.393Z,4.53
2022-12-06T10:14:56.610Z,4.60
2022-12-06T10:17:53.232Z,4.52
2022-12-06T10:20:56.573Z,4.50
2022-12-06T10:23:47.001Z,4.62
2022-12-06T10:26:41.628Z,4.57
2022-12-06T10:29:46.112Z,4.64
2022-12-06T10:32:36.598Z,4.61
2022-12-06T10:35:43.444Z,4.61
2022-12-06T10:38:39.187Z,4.62
2022-12-06T10:41:36.538Z,4.59
2022-12-06T10:44:38.534Z,4.58
2022-12-06T10:47:29.274Z,4.68
2022-12-06T10:50:25.483Z,4.66
2022-12-06T10:53:17.452Z,4.74
2022-12-06T10:56:24.890Z,4.64
2022-12-06T10:59:32.928Z,4.72
2022-12-06T11:02:20.059Z,4.74
2022-12-06T11:05:15.209Z,4.79
2022-12-06T11:08:14.861Z,4.81
2022-12-06T11:11:04.451Z,4.76
2022-12-06T11:13:56.294Z,4.77
2022-12-06T11:16:45.056Z,4.80
2022-12-06T11:19:35.918Z,4.74
2022-12-06T11:22:43.698Z,4.73
2022-12-06T11:25:36.432Z,4.76
2022-12-06T11:28:34.564Z,4.84
2022-12-06T11:31:41.231Z,4.83
2022-12-06T11:34:37.109Z,4.88
2022-12-06T11:37:25.707Z,4.78
2022-12-06T11:40:15.820Z,4.86
2022-12-06T11:43:05.590Z,4.91
2022-12-06T11:45:53.933Z,4.98
2022-12-06T11:48:41.970Z,4.99
2022-12-06T11:51:29.288Z,4.91
2022-12-06T11:54:22.642Z,4.93
2022-12-06T11:57:22.106Z,4.92
2022-12-06T12:00:12.793Z,4.92
2022-12-06T12:03:00.267Z,4.86
2022-12-06T12:05:47.813Z,4.86
2022-12-06T12:08:35.461Z,4.93
2022-12-06T12:11:25.020Z,4.84
2022-12-06T12:14:17.799Z,4.81
2022-12-06T12:17:13.137Z,4.81
2022-12-06T12:20:08.300Z,4.70
2022-12-06T12:23:17.586Z,4.82
2022-12-06T12:26:11.436Z,4.77
2022-12-06T12:29:03.489Z,4.74
2022-12-06T12:31:53.844Z,4.76
2022-12-06T12:34:42.985Z,4.76
2022-12-06T12:37:30.522Z,4.75
2022-12-06T12:40:34.534Z,4.74
2022-12-06T12:43:26.787Z,4.75
2022-12-06T12:46:20.097Z,4.83
2022-12-06T12:49:25.850Z,4.92
2022-12-06T12:52:30.445Z,4.86
2022-12-06T12:55:22.642Z,4.82
2022-12-06T12:58:10.661Z,4.81
2022-12-06T13:00:59.685Z,4.86
2022-12-06T13:03:53.758Z,4.82
2022-12-06T13:06:45.129Z,4.84
2022-12-06T13:09:38.632Z,4.85
2022-12-06T13:12:34.989Z,4.84
2022-12-06T13:15:25.065Z,4.82
2022-12-06T13:18:23.444Z,4.80
2022-12-06T13:21:22.569Z,4.72
2022-12-06T13:24:09.636Z,4.68
2022-12-06T13:26:56.690Z,4.58
2022-12-06T13:29:46.979Z,4.60
2022-12-06T13:32:39.955Z,4.55
2022-12-06T13:35:33.239Z,4.54
2022-12-06T13:38:26.138Z,4.48
2022-12-06T13:41:15.094Z,4.54
2022-12-06T13:44:02.217Z,4.53
2022-12-06T13:46:49.675Z,4.46
2022-12-06T13:49:48.676Z,4.46
2022-12-06T13:52:48.088Z,4.48
2022-12-06T13:55:35.154Z,4.46
2022-12-06T13:58:25.402Z,4.45
2022-12-06T14:01:34.351Z,4.43
2022-12-06T14:10:08.139Z,4.42
2022-12-06T14:12:59.354Z,4.34
2022-12-06T14:15:48.154Z,4.40
2022-12-06T14:18:35.471Z,4.38
2022-12-06T14:21:42.313Z,4.33
2022-12-06T14:24:35.636Z,4.33
2022-12-06T14:27:24.069Z,4.32
2022-12-06T14:30:14.839Z,4.33
2022-12-06T14:33:02.029Z,4.40
2022-12-06T14:35:53.066Z,4.45
2022-12-06T14:38:40.289Z,4.43
2022-12-06T14:41:50.355Z,4.46
2022-12-06T14:44:37.498Z,4.38
2022-12-06T14:47:25.003Z,4.41
2022-12-06T14:50:24.376Z,4.40
2022-12-06T14:53:13.352Z,4.40
2022-12-06T14:56:02.121Z,4.46
2022-12-06T14:58:49.617Z,4.45
2022-12-06T15:01:45.434Z,4.42
2022-12-06T15:04:37.068Z,4.43
2022-12-06T15:07:33.605Z,4.39
2022-12-06T15:10:20.893Z,4.31
2022-12-06T15:13:14.655Z,4.36
2022-12-06T15:16:11.849Z,4.29
2022-12-06T15:19:00.420Z,4.35
2022-12-06T15:21:51.699Z,4.37
2022-12-06T15:24:39.002Z,4.36
2022-12-06T15:27:28.177Z,4.34
2022-12-06T15:30:15.617Z,4.37
2022-12-06T15:33:02.687Z,4.22
2022-12-06T15:35:50.465Z,4.25
2022-12-06T15:38:37.560Z,4.25
2022-12-06T15:41:26.032Z,4.22
2022-12-06T15:44:14.409Z,4.25
2022-12-06T15:47:01.772Z,4.17
2022-12-06T15:49:51.608Z,4.13
2022-12-06T15:52:38.927Z,4.24
2022-12-06T15:55:26.076Z,4.11
2022-12-06T15:58:13.203Z,4.16
2022-12-06T16:01:00.863Z,4.19
2022-12-06T16:03:48.690Z,4.17
2022-12-06T16:06:35.818Z,4.15
2022-12-06T16:09:23.231Z,4.14
2022-12-06T16:12:10.491Z,4.15
2022-12-06T16:14:57.634Z,4.09
2022-12-06T16:17:44.749Z,3.95
2022-12-06T16:20:32.217Z,3.84
2022-12-06T16:24:11.467Z,3.73
2022-12-06T16:26:47.137Z,3.66
2022-12-06T16:29:34.343Z,3.71
2022-12-06T16:32:21.514Z,3.65
2022-12-06T16:35:08.571Z,3.67
2022-12-06T16:37:55.766Z,3.69
2022-12-06T16:40:43.314Z,3.66
2022-12-06T16:43:30.543Z,3.70
2022-12-06T16:46:24.096Z,3.64
2022-12-06T16:49:45.178Z,3.67
2022-12-06T16:52:28.951Z,3.69
2022-12-06T16:55:16.138Z,3.76
2022-12-06T16:58:03.478Z,3.71
2022-12-06T17:00:51.188Z,3.71
2022-12-06T17:03:38.637Z,3.66
2022-12-06T17:06:26.868Z,3.70
2022-12-06T17:09:14.400Z,3.79
2022-12-06T17:12:06.303Z,3.71
2022-12-06T17:14:53.754Z,3.80
2022-12-06T17:17:41.201Z,3.82
2022-12-06T17:20:28.319Z,3.85
2022-12-06T17:23:16.639Z,3.78
2022-12-06T17:26:03.806Z,3.91
2022-12-06T17:28:51.049Z,3.91
2022-12-06T17:31:38.872Z,3.97
2022-12-06T17:34:26.122Z,3.91
2022-12-06T17:37:13.338Z,3.92
2022-12-06T17:40:00.490Z,3.95
2022-12-06T17:42:59.813Z,3.87
2022-12-06T17:45:47.136Z,3.80
2022-12-06T17:48:37.915Z,3.80
2022-12-06T17:51:27.774Z,3.69
2022-12-06T17:54:15.571Z,3.58
2022-12-06T17:57:02.783Z,3.41
2022-12-06T17:59:50.512Z,3.29
2022-12-06T18:02:38.753Z,3.24
2022-12-06T18:05:27.397Z,3.25
2022-12-06T18:08:14.678Z,3.23
2022-12-06T18:11:02.107Z,3.26
2022-12-06T18:13:51.705Z,3.25
2022-12-06T18:16:39.698Z,3.30
2022-12-06T18:19:26.898Z,3.23
2022-12-06T18:22:14.520Z,3.20
2022-12-06T18:25:02.075Z,3.16
2022-12-06T18:27:49.425Z,3.03
2022-12-06T18:30:36.629Z,2.93
2022-12-06T18:33:27.958Z,2.93
2022-12-06T18:36:20.838Z,2.88
2022-12-06T18:39:14.565Z,2.79
2022-12-06T18:42:02.712Z,2.77
2022-12-06T18:44:52.493Z,2.73
2022-12-06T18:47:43.808Z,2.65
2022-12-06T18:50:31.639Z,2.60
2022-12-06T18:53:19.173Z,2.59
2022-12-06T18:56:10.747Z,2.59
2022-12-06T18:59:01.870Z,2.55
2022-12-06T19:01:49.067Z,2.52
2022-12-06T19:04:36.139Z,2.47
2022-12-06T19:07:25.092Z,2.40
2022-12-06T19:10:12.517Z,2.35
2022-12-06T19:13:04.133Z,2.33
2022-12-06T19:15:53.241Z,2.32
2022-12-06T19:18:41.018Z,2.33
2022-12-06T19:21:28.782Z,2.31
2022-12-06T19:24:17.488Z,2.28
2022-12-06T19:27:04.661Z,2.24
2022-12-06T19:29:52.191Z,2.26
2022-12-06T19:32:39.468Z,2.26
2022-12-06T19:35:26.574Z,2.27
2022-12-06T19:38:13.742Z,2.29
2022-12-06T19:41:08.442Z,2.31
2022-12-06T19:44:14.150Z,2.24
2022-12-06T19:47:01.459Z,2.25
2022-12-06T19:49:48.629Z,2.28
2022-12-06T19:52:36.104Z,2.31
2022-12-06T19:55:24.122Z,2.30
2022-12-06T19:58:11.659Z,2.27
2022-12-06T20:00:59.251Z,2.29
2022-12-06T20:03:47.327Z,2.30
2022-12-06T20:06:35.392Z,2.29
2022-12-06T20:09:23.490Z,2.21
2022-12-06T20:12:13.505Z,2.19
2022-12-06T20:15:00.645Z,2.17
2022-12-06T20:17:48.574Z,2.16
2022-12-06T20:20:35.727Z,2.10
2022-12-06T20:23:23.097Z,2.05
2022-12-06T20:26:10.321Z,2.03
2022-12-06T20:28:57.913Z,1.98
2022-12-06T20:31:45.479Z,1.96
2022-12-06T20:34:34.902Z,1.96
2022-12-06T20:37:22.232Z,1.89
2022-12-06T20:40:09.791Z,1.92
2022-12-06T20:42:56.897Z,1.90
2022-12-06T20:45:44.065Z,1.94
2022-12-06T20:48:32.965Z,1.98
2022-12-06T20:51:24.679Z,2.00
2022-12-06T20:54:12.141Z,2.01
2022-12-06T20:56:59.527Z,2.00
2022-12-06T20:59:46.618Z,1.94
2022-12-06T21:02:34.042Z,1.97
2022-12-06T21:05:21.236Z,1.99
2022-12-06T21:08:09.574Z,2.03
2022-12-06T21:11:21.518Z,2.03
2022-12-06T21:14:05.650Z,2.04
2022-12-06T21:16:53.080Z,2.04
2022-12-06T21:19:40.258Z,2.01
2022-12-06T21:22:27.400Z,2.05
2022-12-06T21:25:14.585Z,2.02
2022-12-06T21:28:01.731Z,2.06
2022-12-06T21:30:51.817Z,2.09
2022-12-06T21:33:39.090Z,2.04
2022-12-06T21:36:26.271Z,1.98
2022-12-06T21:39:14.192Z,2.03
2022-12-06T21:42:01.421Z,2.04
2022-12-06T21:44:48.648Z,2.07
2022-12-06T21:47:35.805Z,2.10
2022-12-06T21:50:22.925Z,2.18
2022-12-06T21:53:10.039Z,2.15
2022-12-06T21:55:58.005Z,2.18
2022-12-06T21:58:45.679Z,2.25
2022-12-06T22:01:32.977Z,2.25
2022-12-06T22:04:20.501Z,2.26
2022-12-06T22:07:07.583Z,2.22
2022-12-06T22:09:54.666Z,2.26
2022-12-06T22:12:41.800Z,2.23
2022-12-06T22:15:29.015Z,2.21
2022-12-06T22:18:16.581Z,2.23
2022-12-06T22:21:04.935Z,2.24
2022-12-06T22:23:52.331Z,2.21
2022-12-06T22:26:39.427Z,2.08
2022-12-06T22:29:26.974Z,2.11
2022-12-06T22:32:14.095Z,2.15
2022-12-06T22:35:01.349Z,2.18
2022-12-06T22:37:48.531Z,2.16
2022-12-06T22:40:35.718Z,2.26
2022-12-06T22:43:23.047Z,2.27
2022-12-06T22:46:14.878Z,2.26
2022-12-06T22:49:02.023Z,2.31
2022-12-06T22:51:49.126Z,2.28
2022-12-06T22:54:36.284Z,2.33
2022-12-06T22:57:23.454Z,2.36
2022-12-06T23:00:10.794Z,2.34
2022-12-06T23:02:58.535Z,2.35
2022-12-06T23:05:45.595Z,2.37
2022-12-06T23:08:33.105Z,2.39
2022-12-06T23:11:25.071Z,2.29
2022-12-06T23:14:12.203Z,2.38
2022-12-06T23:16:59.328Z,2.44
2022-12-06T23:19:46.410Z,2.40
2022-12-06T23:22:33.611Z,2.39
2022-12-06T23:25:20.767Z,2.40
2022-12-06T23:28:07.835Z,2.45
2022-12-06T23:30:55.012Z,2.50
2022-12-06T23:33:42.967Z,2.49
2022-12-06T23:36:31.299Z,2.55
2022-12-06T23:39:18.945Z,2.55
2022-12-06T23:42:06.027Z,2.58
2022-12-06T23:44:53.083Z,2.66
2022-12-06T23:47:40.182Z,2.70
2022-12-06T23:50:27.248Z,2.76
2022-12-06T23:53:14.388Z,2.78
2022-12-06T23:56:03.475Z,2.83
2022-12-06T23:58:51.029Z,2.89
